Nevskiy 28 — UCGF — position and weather

sailwx.info

Track history (hours):
 
Tides and Currents Weather Stations Pressure Air Temp Water Temp Dewpoint Dewpoint Depression Visibility Wind Speed Wind Dir Waves Ship Positions

Nevskiy 28

Last reported at 2014-Nov-25 23:33 UTC. Time now 2014-Nov-26 12:47 UTC.
Position N 59°57' E 030°22'.

Length 110 m; draft 3.2 m.

Type: Cargo ship. MMSI: 273441220.

Date/timePositionNaut miles runAvg speedWind from/ knotsBaromVisibWave heightAir tempDewpointWater temp
2014-Nov-25 23:33N 59°57' E 030°22'4 3.6
2014-Nov-25 22:34N 59°57' E 030°15'0 0.0
2014-Nov-25 21:33N 59°57' E 030°15'0 0.0
2014-Nov-25 20:33N 59°57' E 030°15'0 0.0
2014-Nov-25 19:33N 59°57' E 030°15'1 0.4
2014-Nov-25 17:20N 59°58' E 030°14'  
2014-Nov-22 12:25N 59°58' E 030°13'1 0.8
2014-Nov-22 11:32N 59°58' E 030°12'1 0.0
2014-Nov-21 05:08N 59°58' E 030°14'1 0.2
2014-Nov-21 01:21N 59°57' E 030°15'  
2014-Nov-17 21:27N 59°58' E 030°13'0 0.2
2014-Nov-17 20:33N 59°58' E 030°13'0 0.0
2014-Nov-17 19:33N 59°58' E 030°13'0 0.0
2014-Nov-17 18:32N 59°58' E 030°13'0 0.0
2014-Nov-17 17:32N 59°58' E 030°13'0 0.0
2014-Nov-17 16:32N 59°58' E 030°13'0 0.0
2014-Nov-17 15:32N 59°58' E 030°13'0 0.0
2014-Nov-17 14:26N 59°58' E 030°13'0 0.0
2014-Nov-17 13:28N 59°58' E 030°13'0 0.0
2014-Nov-17 12:13N 59°58' E 030°13'0 0.0
2014-Nov-17 11:32N 59°58' E 030°13'0 0.0
2014-Nov-17 09:32N 59°58' E 030°13'3 1.3
2014-Nov-17 07:33N 59°57' E 030°08'1 0.0
2014-Nov-16 14:18N 59°57' E 030°07'3 4.1
2014-Nov-16 13:32N 59°58' E 030°13'0 0.0
2014-Nov-16 12:31N 59°58' E 030°13'0 0.0
2014-Nov-16 11:33N 59°58' E 030°13'0 0.0
2014-Nov-16 10:33N 59°58' E 030°13'0 0.0
2014-Nov-16 09:31N 59°58' E 030°13'0 0.0
2014-Nov-16 08:31N 59°58' E 030°13'0 0.0
2014-Nov-16 07:33N 59°58' E 030°13'1 0.7
2014-Nov-16 06:33N 59°58' E 030°12'  
Track history (hours):
 
Tides and Currents Weather Stations Pressure Air Temp Water Temp Dewpoint Dewpoint Depression Visibility Wind Speed Wind Dir Waves Ship Positions

Nevskiy 28

Last reported at 2014-Nov-25 23:33 UTC. Time now 2014-Nov-26 12:47 UTC.
Position N 59°57' E 030°22'.

Length 110 m; draft 3.2 m.

Type: Cargo ship. MMSI: 273441220.

Date/timePositionNaut miles runAvg speedWind from/ knotsBaromVisibWave heightAir tempDewpointWater temp
2014-Nov-25 23:33N 59°57' E 030°22'4 3.6
2014-Nov-25 22:34N 59°57' E 030°15'0 0.0
2014-Nov-25 21:33N 59°57' E 030°15'0 0.0
2014-Nov-25 20:33N 59°57' E 030°15'0 0.0
2014-Nov-25 19:33N 59°57' E 030°15'1 0.4
2014-Nov-25 17:20N 59°58' E 030°14'  
2014-Nov-22 12:25N 59°58' E 030°13'1 0.8
2014-Nov-22 11:32N 59°58' E 030°12'1 0.0
2014-Nov-21 05:08N 59°58' E 030°14'1 0.2
2014-Nov-21 01:21N 59°57' E 030°15'  
2014-Nov-17 21:27N 59°58' E 030°13'0 0.2
2014-Nov-17 20:33N 59°58' E 030°13'0 0.0
2014-Nov-17 19:33N 59°58' E 030°13'0 0.0
2014-Nov-17 18:32N 59°58' E 030°13'0 0.0
2014-Nov-17 17:32N 59°58' E 030°13'0 0.0
2014-Nov-17 16:32N 59°58' E 030°13'0 0.0
2014-Nov-17 15:32N 59°58' E 030°13'0 0.0
2014-Nov-17 14:26N 59°58' E 030°13'0 0.0
2014-Nov-17 13:28N 59°58' E 030°13'0 0.0
2014-Nov-17 12:13N 59°58' E 030°13'0 0.0
2014-Nov-17 11:32N 59°58' E 030°13'0 0.0
2014-Nov-17 09:32N 59°58' E 030°13'3 1.3
2014-Nov-17 07:33N 59°57' E 030°08'1 0.0
2014-Nov-16 14:18N 59°57' E 030°07'3 4.1
2014-Nov-16 13:32N 59°58' E 030°13'0 0.0
2014-Nov-16 12:31N 59°58' E 030°13'0 0.0
2014-Nov-16 11:33N 59°58' E 030°13'0 0.0
2014-Nov-16 10:33N 59°58' E 030°13'0 0.0
2014-Nov-16 09:31N 59°58' E 030°13'0 0.0
2014-Nov-16 08:31N 59°58' E 030°13'0 0.0
2014-Nov-16 07:33N 59°58' E 030°13'1 0.7
2014-Nov-16 06:33N 59°58' E 030°12'  

Dump ship's entire track history